Aviation Digital Data Service (ADDS)

Output produced by METARs form (1222 UTC 17 September 2019)
found at http://www.aviationweather.gov/metar/data/
 
Forecast for: ZJHK (HAIKOU , CN)
Text: TAF ZJHK 170904Z 1712/1812 05004MPS 8000 SCT020 TX33/1806Z TN25/1721Z
Forecast period: 1200 UTC 17 September 2019 to 1200 UTC 18 September 2019
Forecast type: FROM: standard forecast or significant change
Winds: from the NE (50 degrees) at 9 MPH (8 knots; 4.1 m/s)
Visibility: 5 miles (8 km)
Ceiling: at least 12,000 feet AGL
Clouds: scattered clouds at 2000 feet AGL
Weather: no significant weather forecast for this period
Text: TEMPO 1806/1812 -TSRA SCT023 FEW026CB
Forecast period: 0600 to 1200 UTC 18 September 2019
Forecast type: TEMPORARY: The following changes expected for less than half the time period
Visibility: missing
Ceiling: at least 12,000 feet AGL
Clouds: scattered clouds at 2300 feet AGL
few clouds at 2600 feet AGL
Weather: -TSRA  (light rain associated with thunderstorm(s))